createdAt,value
2017-12-21T00:00:36.377Z,1024.57
2017-12-21T00:01:36.984Z,1024.59
2017-12-21T00:02:37.588Z,1024.55
2017-12-21T00:03:38.180Z,1024.53
2017-12-21T00:04:38.782Z,1024.48
2017-12-21T00:05:39.386Z,1024.47
2017-12-21T00:06:39.994Z,1024.44
2017-12-21T00:07:40.594Z,1024.43
2017-12-21T00:08:41.201Z,1024.47
2017-12-21T00:09:41.803Z,1024.41
2017-12-21T00:10:42.411Z,1024.41
2017-12-21T00:11:43.014Z,1024.38
2017-12-21T00:12:43.619Z,1024.36
2017-12-21T00:13:44.216Z,1024.35
2017-12-21T00:14:44.831Z,1024.34
2017-12-21T00:15:45.447Z,1024.34
2017-12-21T00:16:46.055Z,1024.31
2017-12-21T00:17:46.660Z,1024.35
2017-12-21T00:18:47.254Z,1024.27
2017-12-21T00:19:47.857Z,1024.28
2017-12-21T00:20:48.456Z,1024.31
2017-12-21T00:21:49.058Z,1024.38
2017-12-21T00:22:49.664Z,1024.37
2017-12-21T00:23:50.270Z,1024.43
2017-12-21T00:24:50.879Z,1024.39
2017-12-21T00:25:51.488Z,1024.40
2017-12-21T00:26:52.102Z,1024.38
2017-12-21T00:27:52.709Z,1024.40
2017-12-21T00:28:53.300Z,1024.38
2017-12-21T00:29:53.903Z,1024.42
2017-12-21T00:30:54.499Z,1024.38
2017-12-21T00:31:55.098Z,1024.40
2017-12-21T00:32:55.714Z,1024.38
2017-12-21T00:33:56.319Z,1024.39
2017-12-21T00:34:56.922Z,1024.42
2017-12-21T00:35:57.526Z,1024.43
2017-12-21T00:36:58.134Z,1024.46
2017-12-21T00:37:58.729Z,1024.43
2017-12-21T00:38:59.320Z,1024.42
2017-12-21T00:39:59.931Z,1024.38
2017-12-21T00:41:00.546Z,1024.36
2017-12-21T00:42:01.155Z,1024.35
2017-12-21T00:43:01.751Z,1024.35
2017-12-21T00:44:02.350Z,1024.35
2017-12-21T00:45:02.982Z,1024.36
2017-12-21T00:46:03.562Z,1024.35
2017-12-21T00:47:04.157Z,1024.34
2017-12-21T00:48:04.754Z,1024.30
2017-12-21T00:49:05.364Z,1024.32
2017-12-21T00:50:05.960Z,1024.32
2017-12-21T00:51:06.572Z,1024.36
2017-12-21T00:52:07.177Z,1024.31
2017-12-21T00:53:07.784Z,1024.38
2017-12-21T00:54:08.387Z,1024.34
2017-12-21T00:55:08.991Z,1024.31
2017-12-21T00:56:09.598Z,1024.35
2017-12-21T00:57:10.194Z,1024.37
2017-12-21T00:58:10.811Z,1024.42
2017-12-21T00:59:11.416Z,1024.45
2017-12-21T01:00:12.019Z,1024.55
2017-12-21T01:01:12.636Z,1024.55
2017-12-21T01:02:13.243Z,1024.57
2017-12-21T01:03:13.841Z,1024.59
2017-12-21T01:04:14.432Z,1024.59
2017-12-21T01:05:15.035Z,1024.58
2017-12-21T01:06:15.633Z,1024.62
2017-12-21T01:07:16.233Z,1024.60
2017-12-21T01:08:16.828Z,1024.59
2017-12-21T01:09:17.438Z,1024.59
2017-12-21T01:10:18.045Z,1024.57
2017-12-21T01:11:18.639Z,1024.58
2017-12-21T01:12:19.239Z,1024.64
2017-12-21T01:13:19.832Z,1024.61
2017-12-21T01:14:20.429Z,1024.68
2017-12-21T01:15:21.034Z,1024.69
2017-12-21T01:16:21.635Z,1024.64
2017-12-21T01:17:22.246Z,1024.66
2017-12-21T01:18:22.852Z,1024.69
2017-12-21T01:19:23.452Z,1024.66
2017-12-21T01:20:24.058Z,1024.67
2017-12-21T01:21:24.688Z,1024.66
2017-12-21T01:22:25.251Z,1024.71
2017-12-21T01:23:25.857Z,1024.72
2017-12-21T01:24:26.461Z,1024.70
2017-12-21T01:25:27.071Z,1024.68
2017-12-21T01:26:27.682Z,1024.73
2017-12-21T01:27:28.269Z,1024.72
2017-12-21T01:28:28.861Z,1024.71
2017-12-21T01:29:29.466Z,1024.69
2017-12-21T01:30:30.059Z,1024.72
2017-12-21T01:31:30.664Z,1024.73
2017-12-21T01:32:31.258Z,1024.72
2017-12-21T01:33:31.851Z,1024.73
2017-12-21T01:34:32.440Z,1024.73
2017-12-21T01:35:33.041Z,1024.74
2017-12-21T01:36:33.631Z,1024.72
2017-12-21T01:37:34.234Z,1024.71
2017-12-21T01:38:34.827Z,1024.71
2017-12-21T01:39:35.426Z,1024.71
2017-12-21T01:40:36.032Z,1024.72
2017-12-21T01:41:36.640Z,1024.81
2017-12-21T01:42:37.247Z,1024.83
2017-12-21T01:43:37.841Z,1024.87
2017-12-21T01:44:38.453Z,1024.90
2017-12-21T01:45:39.039Z,1024.88
2017-12-21T01:46:39.641Z,1024.82
2017-12-21T01:47:40.231Z,1024.78
2017-12-21T01:48:40.835Z,1024.79
2017-12-21T01:49:41.429Z,1024.76
2017-12-21T01:50:42.019Z,1024.77
2017-12-21T01:51:42.613Z,1024.79
2017-12-21T01:52:43.209Z,1024.85
2017-12-21T01:53:43.802Z,1024.82
2017-12-21T01:54:44.403Z,1024.79
2017-12-21T01:55:44.994Z,1024.80
2017-12-21T01:56:45.584Z,1024.81
2017-12-21T01:57:46.185Z,1024.80
2017-12-21T01:58:46.776Z,1024.84
2017-12-21T01:59:47.370Z,1024.83
2017-12-21T02:00:47.973Z,1024.85
2017-12-21T02:01:48.573Z,1024.85
2017-12-21T02:02:49.172Z,1024.84
2017-12-21T02:03:49.774Z,1024.82
2017-12-21T02:04:50.367Z,1024.77
2017-12-21T02:05:50.967Z,1024.77
2017-12-21T02:06:51.562Z,1024.81
2017-12-21T02:07:52.159Z,1024.77
2017-12-21T02:08:52.756Z,1024.78
2017-12-21T02:09:53.352Z,1024.78
2017-12-21T02:10:53.955Z,1024.83
2017-12-21T02:11:54.552Z,1024.81
2017-12-21T02:12:55.162Z,1024.84
2017-12-21T02:13:55.761Z,1024.84
2017-12-21T02:14:56.365Z,1024.84
2017-12-21T02:15:56.970Z,1024.86
2017-12-21T02:16:57.565Z,1024.90
2017-12-21T02:17:58.174Z,1024.90
2017-12-21T02:18:58.772Z,1024.87
2017-12-21T02:19:59.381Z,1024.86
2017-12-21T02:20:59.978Z,1024.86
2017-12-21T02:22:00.570Z,1024.88
2017-12-21T02:23:01.168Z,1024.88
2017-12-21T02:24:01.772Z,1024.85
2017-12-21T02:25:02.377Z,1024.84
2017-12-21T02:26:03.019Z,1024.79
2017-12-21T02:27:03.587Z,1024.81
2017-12-21T02:28:04.183Z,1024.77
2017-12-21T02:29:04.785Z,1024.75
2017-12-21T02:30:05.384Z,1024.76
2017-12-21T02:31:05.976Z,1024.76
2017-12-21T02:32:06.576Z,1024.72
2017-12-21T02:33:07.187Z,1024.76
2017-12-21T02:34:07.797Z,1024.76
2017-12-21T02:35:08.404Z,1024.75
2017-12-21T02:36:09.017Z,1024.74
2017-12-21T02:37:09.630Z,1024.73
2017-12-21T02:38:10.240Z,1024.75
2017-12-21T02:39:10.827Z,1024.68
2017-12-21T02:40:11.425Z,1024.71
2017-12-21T02:41:12.037Z,1024.74
2017-12-21T02:42:12.694Z,1024.76
2017-12-21T02:43:13.241Z,1024.77
2017-12-21T02:44:13.847Z,1024.76
2017-12-21T02:45:14.463Z,1024.74
2017-12-21T02:46:15.080Z,1024.70
2017-12-21T02:47:15.693Z,1024.70
2017-12-21T02:48:16.298Z,1024.67
2017-12-21T02:49:16.928Z,1024.67
2017-12-21T02:50:17.518Z,1024.67
2017-12-21T02:51:18.125Z,1024.68
2017-12-21T02:52:18.723Z,1024.69
2017-12-21T02:53:19.322Z,1024.71
2017-12-21T02:54:19.918Z,1024.72
2017-12-21T02:55:20.516Z,1024.79
2017-12-21T02:56:21.113Z,1024.79
2017-12-21T02:57:21.706Z,1024.78
2017-12-21T02:58:22.314Z,1024.74
2017-12-21T02:59:22.932Z,1024.69
2017-12-21T03:00:23.524Z,1024.64
2017-12-21T03:01:24.116Z,1024.60
2017-12-21T03:02:24.716Z,1024.57
2017-12-21T03:03:25.326Z,1024.57
2017-12-21T03:04:25.923Z,1024.57
2017-12-21T03:05:26.528Z,1024.62
2017-12-21T03:06:27.119Z,1024.66
2017-12-21T03:07:27.715Z,1024.68
2017-12-21T03:08:28.317Z,1024.70
2017-12-21T03:09:28.926Z,1024.73
2017-12-21T03:10:29.526Z,1024.71
2017-12-21T03:11:30.118Z,1024.67
2017-12-21T03:12:30.718Z,1024.64
2017-12-21T03:13:31.312Z,1024.68
2017-12-21T03:14:31.914Z,1024.70
2017-12-21T03:15:32.521Z,1024.74
2017-12-21T03:16:33.128Z,1024.69
2017-12-21T03:17:33.742Z,1024.65
2017-12-21T03:18:34.351Z,1024.61
2017-12-21T03:19:34.948Z,1024.57
2017-12-21T03:20:35.559Z,1024.53
2017-12-21T03:21:36.167Z,1024.45
2017-12-21T03:22:36.757Z,1024.43
2017-12-21T03:23:37.360Z,1024.33
2017-12-21T03:24:37.975Z,1024.38
2017-12-21T03:25:38.578Z,1024.44
2017-12-21T03:26:39.184Z,1024.41
2017-12-21T03:27:39.774Z,1024.42
2017-12-21T03:28:40.362Z,1024.45
2017-12-21T03:29:40.965Z,1024.53
2017-12-21T03:30:41.565Z,1024.51
2017-12-21T03:31:42.159Z,1024.54
2017-12-21T03:32:42.756Z,1024.47
2017-12-21T03:33:43.363Z,1024.39
2017-12-21T03:34:43.968Z,1024.40
2017-12-21T03:35:44.560Z,1024.49
2017-12-21T03:36:45.178Z,1024.52
2017-12-21T03:37:45.789Z,1024.50
2017-12-21T03:38:46.392Z,1024.47
2017-12-21T03:39:46.993Z,1024.40
2017-12-21T03:40:47.594Z,1024.43
2017-12-21T03:41:48.198Z,1024.42
2017-12-21T03:42:48.804Z,1024.39
2017-12-21T03:43:49.405Z,1024.39
2017-12-21T03:44:50.020Z,1024.32
2017-12-21T03:45:50.633Z,1024.34
2017-12-21T03:46:51.236Z,1024.40
2017-12-21T03:47:51.838Z,1024.40
2017-12-21T03:48:52.436Z,1024.37
2017-12-21T03:49:53.031Z,1024.33
2017-12-21T03:50:53.638Z,1024.30
2017-12-21T03:51:54.247Z,1024.30
2017-12-21T03:52:54.838Z,1024.29
2017-12-21T03:53:55.441Z,1024.25
2017-12-21T03:54:56.056Z,1024.24
2017-12-21T03:55:56.672Z,1024.21
2017-12-21T03:56:57.285Z,1024.22
2017-12-21T03:57:57.894Z,1024.16
2017-12-21T03:58:58.507Z,1024.15
2017-12-21T03:59:59.082Z,1024.17
2017-12-21T04:00:59.691Z,1024.19
2017-12-21T04:02:00.288Z,1024.16
2017-12-21T04:03:00.881Z,1024.18
2017-12-21T04:04:01.481Z,1024.14
2017-12-21T04:05:02.077Z,1024.14
2017-12-21T04:06:02.697Z,1024.11
2017-12-21T04:07:03.307Z,1024.14
2017-12-21T04:08:03.912Z,1024.19
2017-12-21T04:09:04.526Z,1024.14
2017-12-21T04:10:05.140Z,1024.14
2017-12-21T04:11:05.729Z,1024.11
2017-12-21T04:12:06.339Z,1024.09
2017-12-21T04:13:06.949Z,1024.11
2017-12-21T04:14:07.560Z,1024.16
2017-12-21T04:15:08.143Z,1024.12
2017-12-21T04:16:08.734Z,1024.15
2017-12-21T04:17:09.323Z,1024.11
2017-12-21T04:18:09.929Z,1024.11
2017-12-21T04:19:10.543Z,1024.15
2017-12-21T04:20:11.135Z,1024.11
2017-12-21T04:21:11.735Z,1024.08
2017-12-21T04:22:12.339Z,1024.12
2017-12-21T04:23:12.944Z,1024.12
2017-12-21T04:24:13.535Z,1024.11
2017-12-21T04:25:14.134Z,1024.13
2017-12-21T04:26:14.748Z,1024.16
2017-12-21T04:27:15.342Z,1024.14
2017-12-21T04:28:15.943Z,1024.11
2017-12-21T04:29:16.546Z,1024.10
2017-12-21T04:30:17.140Z,1024.05
2017-12-21T04:31:17.747Z,1024.05
2017-12-21T04:32:18.340Z,1024.05
2017-12-21T04:33:18.936Z,1024.06
2017-12-21T04:34:19.539Z,1023.98
2017-12-21T04:35:20.133Z,1024.00
2017-12-21T04:36:20.745Z,1024.03
2017-12-21T04:37:21.350Z,1024.04
2017-12-21T04:38:21.956Z,1024.05
2017-12-21T04:39:22.561Z,1024.07
2017-12-21T04:40:23.166Z,1024.05
2017-12-21T04:41:23.773Z,1024.05
2017-12-21T04:42:24.369Z,1024.05
2017-12-21T04:43:24.961Z,1024.05
2017-12-21T04:44:25.555Z,1024.05
2017-12-21T04:45:26.142Z,1024.02
2017-12-21T04:46:26.740Z,1024.03
2017-12-21T04:47:27.339Z,1024.02
2017-12-21T04:48:27.956Z,1024.03
2017-12-21T04:49:28.562Z,1024.00
2017-12-21T04:50:29.169Z,1023.98
2017-12-21T04:51:29.775Z,1024.01
2017-12-21T04:52:30.377Z,1023.97
2017-12-21T04:53:30.979Z,1023.98
2017-12-21T04:54:31.573Z,1023.97
2017-12-21T04:55:32.186Z,1023.97
2017-12-21T04:56:32.802Z,1023.98
2017-12-21T04:57:33.408Z,1024.01
2017-12-21T04:58:34.006Z,1024.01
2017-12-21T04:59:34.609Z,1024.00
2017-12-21T05:00:35.189Z,1023.97
2017-12-21T05:01:35.791Z,1023.99
2017-12-21T05:02:36.396Z,1023.99
2017-12-21T05:03:37.003Z,1023.96
2017-12-21T05:04:37.606Z,1023.92
2017-12-21T05:05:38.204Z,1023.93
2017-12-21T05:06:38.801Z,1023.87
2017-12-21T05:07:39.408Z,1023.87
2017-12-21T05:08:40.012Z,1023.88
2017-12-21T05:09:40.625Z,1023.89
2017-12-21T05:10:41.230Z,1023.81
2017-12-21T05:11:41.831Z,1023.90
2017-12-21T05:12:42.437Z,1023.85
2017-12-21T05:13:43.029Z,1023.89
2017-12-21T05:14:43.636Z,1023.89
2017-12-21T05:15:44.253Z,1023.90
2017-12-21T05:16:44.857Z,1023.91
2017-12-21T05:17:45.462Z,1023.95
2017-12-21T05:18:46.064Z,1023.87
2017-12-21T05:19:46.653Z,1023.93
2017-12-21T05:20:47.253Z,1023.91
2017-12-21T05:21:47.854Z,1023.90
2017-12-21T05:22:48.444Z,1023.93
2017-12-21T05:23:49.041Z,1023.96
2017-12-21T05:24:49.650Z,1023.88
2017-12-21T05:25:50.274Z,1023.93
2017-12-21T05:26:50.849Z,1023.92
2017-12-21T05:27:51.454Z,1023.87
2017-12-21T05:28:52.043Z,1023.91
2017-12-21T05:29:52.641Z,1023.92
2017-12-21T05:30:53.236Z,1023.91
2017-12-21T05:31:53.837Z,1023.94
2017-12-21T05:32:54.449Z,1023.93
2017-12-21T05:33:55.037Z,1023.89
2017-12-21T05:34:55.638Z,1023.93
2017-12-21T05:35:56.228Z,1023.87
2017-12-21T05:36:56.823Z,1023.88
2017-12-21T05:37:57.431Z,1023.87
2017-12-21T05:38:58.034Z,1023.85
2017-12-21T05:39:58.626Z,1023.88
2017-12-21T05:40:59.221Z,1023.86
2017-12-21T05:41:59.831Z,1023.92
2017-12-21T05:43:00.426Z,1023.90
2017-12-21T05:44:01.033Z,1023.89
2017-12-21T05:45:01.634Z,1023.88
2017-12-21T05:46:02.243Z,1023.86
2017-12-21T05:47:02.853Z,1023.88
2017-12-21T05:48:03.449Z,1023.89
2017-12-21T05:49:04.049Z,1023.88
2017-12-21T05:50:04.646Z,1023.90
2017-12-21T05:51:05.261Z,1023.89
2017-12-21T05:52:05.861Z,1023.91
2017-12-21T05:53:06.464Z,1023.88
2017-12-21T05:54:07.067Z,1023.89
2017-12-21T05:55:07.666Z,1023.86
2017-12-21T05:56:08.262Z,1023.81
2017-12-21T05:57:08.852Z,1023.85
2017-12-21T05:58:09.451Z,1023.82
2017-12-21T05:59:10.051Z,1023.87
2017-12-21T06:00:10.655Z,1023.87
2017-12-21T06:01:11.266Z,1023.88
2017-12-21T06:02:11.879Z,1023.88
2017-12-21T06:03:12.493Z,1023.90
2017-12-21T06:04:13.092Z,1023.92
2017-12-21T06:05:13.704Z,1023.92
2017-12-21T06:06:14.320Z,1023.93
2017-12-21T06:07:14.917Z,1023.92
2017-12-21T06:08:15.526Z,1023.95
2017-12-21T06:09:16.133Z,1023.88
2017-12-21T06:10:16.728Z,1023.90
2017-12-21T06:11:17.332Z,1023.92
2017-12-21T06:12:17.924Z,1023.93
2017-12-21T06:13:18.528Z,1024.00
2017-12-21T06:14:19.132Z,1024.03
2017-12-21T06:15:19.736Z,1024.02
2017-12-21T06:16:20.338Z,1024.01
2017-12-21T06:17:20.950Z,1024.02
2017-12-21T06:18:21.543Z,1024.04
2017-12-21T06:19:22.144Z,1024.07
2017-12-21T06:20:22.737Z,1024.05
2017-12-21T06:21:23.328Z,1024.06
2017-12-21T06:22:23.931Z,1024.08
2017-12-21T06:23:24.541Z,1024.08
2017-12-21T06:24:25.141Z,1024.11
2017-12-21T06:25:25.744Z,1024.08
2017-12-21T06:26:26.340Z,1024.06
2017-12-21T06:27:26.932Z,1024.08
2017-12-21T06:28:27.532Z,1024.03
2017-12-21T06:29:28.162Z,1024.00
2017-12-21T06:30:28.745Z,1024.02
2017-12-21T06:31:29.352Z,1024.00
2017-12-21T06:32:29.948Z,1024.00
2017-12-21T06:33:30.550Z,1023.95
2017-12-21T06:34:31.150Z,1023.99
2017-12-21T06:35:31.751Z,1023.98
2017-12-21T06:36:32.351Z,1024.01
2017-12-21T06:37:32.965Z,1024.04
2017-12-21T06:38:33.563Z,1024.02
2017-12-21T06:39:34.159Z,1023.97
2017-12-21T06:40:34.756Z,1023.97
2017-12-21T06:41:35.362Z,1023.99
2017-12-21T06:42:35.960Z,1023.96
2017-12-21T06:43:36.560Z,1023.96
2017-12-21T06:44:37.163Z,1023.97
2017-12-21T06:45:37.761Z,1023.95
2017-12-21T06:46:38.354Z,1023.98
2017-12-21T06:47:38.960Z,1023.97
2017-12-21T06:48:39.561Z,1024.02
2017-12-21T06:49:40.180Z,1024.09
2017-12-21T06:50:40.772Z,1024.06
2017-12-21T06:51:41.373Z,1024.10
2017-12-21T06:52:41.978Z,1024.09
2017-12-21T06:53:42.579Z,1024.06
2017-12-21T06:54:43.173Z,1024.09
2017-12-21T06:55:43.777Z,1024.13
2017-12-21T06:56:44.389Z,1024.15
2017-12-21T06:57:45.011Z,1024.17
2017-12-21T06:58:45.595Z,1024.13
2017-12-21T06:59:46.208Z,1024.13
2017-12-21T07:00:46.829Z,1024.08
2017-12-21T07:01:47.430Z,1024.06
2017-12-21T07:02:48.068Z,1024.09
2017-12-21T07:03:48.653Z,1024.14
2017-12-21T07:04:49.268Z,1024.14
2017-12-21T07:05:49.882Z,1024.07
2017-12-21T07:06:50.491Z,1024.10
2017-12-21T07:07:51.110Z,1024.12
2017-12-21T07:08:51.729Z,1024.15
2017-12-21T07:09:52.331Z,1024.11
2017-12-21T07:10:52.948Z,1024.13
2017-12-21T07:11:53.555Z,1024.18
2017-12-21T07:12:54.162Z,1024.16
2017-12-21T07:13:54.761Z,1024.18
2017-12-21T07:14:55.377Z,1024.21
2017-12-21T07:15:56.001Z,1024.24
2017-12-21T07:16:56.593Z,1024.25
2017-12-21T07:17:57.206Z,1024.29
2017-12-21T07:18:57.823Z,1024.31
2017-12-21T07:19:58.430Z,1024.32
2017-12-21T07:20:59.024Z,1024.30
2017-12-21T07:21:59.630Z,1024.25
2017-12-21T07:23:00.222Z,1024.22
2017-12-21T07:24:00.846Z,1024.24
2017-12-21T07:25:01.453Z,1024.23
2017-12-21T07:26:02.059Z,1024.25
2017-12-21T07:27:02.658Z,1024.23
2017-12-21T07:28:03.263Z,1024.20
2017-12-21T07:29:03.882Z,1024.24
2017-12-21T07:30:04.462Z,1024.25
2017-12-21T07:31:05.104Z,1024.29
2017-12-21T07:32:05.673Z,1024.30
2017-12-21T07:33:06.279Z,1024.30
2017-12-21T07:34:06.868Z,1024.28
2017-12-21T07:35:07.466Z,1024.30
2017-12-21T07:36:08.079Z,1024.33
2017-12-21T07:37:08.684Z,1024.32
2017-12-21T07:38:09.283Z,1024.34
2017-12-21T07:39:09.877Z,1024.36
2017-12-21T07:40:10.487Z,1024.33
2017-12-21T07:41:11.102Z,1024.33
2017-12-21T07:42:11.720Z,1024.35
2017-12-21T07:43:12.318Z,1024.33
2017-12-21T07:44:12.922Z,1024.37
2017-12-21T07:45:13.537Z,1024.37
2017-12-21T07:46:14.141Z,1024.37
2017-12-21T07:47:14.756Z,1024.42
2017-12-21T07:48:15.369Z,1024.38
2017-12-21T07:49:15.972Z,1024.38
2017-12-21T07:50:16.564Z,1024.38
2017-12-21T07:51:17.160Z,1024.40
2017-12-21T07:52:17.764Z,1024.45
2017-12-21T07:53:18.366Z,1024.42
2017-12-21T07:54:18.978Z,1024.41
2017-12-21T07:55:19.586Z,1024.39
2017-12-21T07:56:20.187Z,1024.46
2017-12-21T07:57:20.798Z,1024.53
2017-12-21T07:58:21.411Z,1024.52
2017-12-21T07:59:22.025Z,1024.49
2017-12-21T08:00:22.700Z,1024.49
2017-12-21T08:01:23.227Z,1024.53
2017-12-21T08:02:23.825Z,1024.51
2017-12-21T08:03:24.434Z,1024.51
2017-12-21T08:04:25.042Z,1024.51
2017-12-21T08:05:25.653Z,1024.54
2017-12-21T08:06:26.271Z,1024.54
2017-12-21T08:07:26.872Z,1024.53
2017-12-21T08:08:27.484Z,1024.53
2017-12-21T08:09:28.086Z,1024.56
2017-12-21T08:10:28.710Z,1024.58
2017-12-21T08:11:29.316Z,1024.55
2017-12-21T08:12:29.915Z,1024.56
2017-12-21T08:13:30.514Z,1024.54
2017-12-21T08:14:31.120Z,1024.59
2017-12-21T08:15:31.717Z,1024.58
2017-12-21T08:16:32.330Z,1024.61
2017-12-21T08:17:32.950Z,1024.63
2017-12-21T08:18:33.549Z,1024.64
2017-12-21T08:19:34.152Z,1024.65
2017-12-21T08:20:34.762Z,1024.62
2017-12-21T08:21:35.382Z,1024.63
2017-12-21T08:22:36.004Z,1024.66
2017-12-21T08:23:36.626Z,1024.61
2017-12-21T08:24:37.269Z,1024.66
2017-12-21T08:25:37.838Z,1024.65
2017-12-21T08:26:38.451Z,1024.65
2017-12-21T08:27:39.061Z,1024.65
2017-12-21T08:28:39.663Z,1024.62
2017-12-21T08:29:40.277Z,1024.59
2017-12-21T08:30:40.878Z,1024.61
2017-12-21T08:31:41.473Z,1024.61
2017-12-21T08:32:42.086Z,1024.64
2017-12-21T08:33:42.703Z,1024.59
2017-12-21T08:34:43.323Z,1024.64
2017-12-21T08:35:43.927Z,1024.66
2017-12-21T08:36:44.540Z,1024.65
2017-12-21T08:37:45.134Z,1024.65
2017-12-21T08:38:45.748Z,1024.67
2017-12-21T08:39:46.349Z,1024.65
2017-12-21T08:40:49.253Z,1024.62
2017-12-21T08:41:49.875Z,1024.63
2017-12-21T08:42:50.529Z,1024.64
2017-12-21T08:43:51.114Z,1024.61
2017-12-21T08:44:51.804Z,1024.59
2017-12-21T08:45:52.403Z,1024.57
2017-12-21T08:46:53.006Z,1024.56
2017-12-21T08:47:53.617Z,1024.54
2017-12-21T08:48:54.219Z,1024.58
2017-12-21T08:49:54.828Z,1024.62
2017-12-21T08:50:55.434Z,1024.64
2017-12-21T08:51:56.019Z,1024.62
2017-12-21T08:52:56.630Z,1024.65
2017-12-21T08:53:57.232Z,1024.61
2017-12-21T08:54:57.841Z,1024.61
2017-12-21T08:55:58.432Z,1024.61
2017-12-21T08:56:59.149Z,1024.67
2017-12-21T08:57:59.702Z,1024.65
2017-12-21T08:59:00.319Z,1024.63
2017-12-21T09:00:00.924Z,1024.65
2017-12-21T09:01:01.538Z,1024.65
2017-12-21T09:02:02.167Z,1024.63
2017-12-21T09:03:02.782Z,1024.64
2017-12-21T09:04:03.379Z,1024.68
2017-12-21T09:05:03.982Z,1024.65
2017-12-21T09:06:04.613Z,1024.64
2017-12-21T09:07:05.235Z,1024.66
2017-12-21T09:08:05.864Z,1024.68
2017-12-21T09:09:06.457Z,1024.65
2017-12-21T09:10:07.076Z,1024.70
2017-12-21T09:11:07.688Z,1024.67
2017-12-21T09:12:08.296Z,1024.70
2017-12-21T09:13:08.911Z,1024.69
2017-12-21T09:14:09.517Z,1024.69
2017-12-21T09:15:10.129Z,1024.67
2017-12-21T09:16:10.740Z,1024.67
2017-12-21T09:17:11.348Z,1024.62
2017-12-21T09:18:11.955Z,1024.59
2017-12-21T09:19:12.622Z,1024.60
2017-12-21T09:20:13.229Z,1024.59
2017-12-21T09:21:13.838Z,1024.59
2017-12-21T09:22:14.449Z,1024.58
2017-12-21T09:23:15.077Z,1024.54
2017-12-21T09:24:15.685Z,1024.56
2017-12-21T09:25:16.288Z,1024.52
2017-12-21T09:26:16.911Z,1024.48
2017-12-21T09:27:17.519Z,1024.45
2017-12-21T09:28:18.128Z,1024.41
2017-12-21T09:29:18.742Z,1024.34
2017-12-21T09:30:19.353Z,1024.30
2017-12-21T09:31:19.968Z,1024.26
2017-12-21T09:32:20.579Z,1024.24
2017-12-21T09:33:21.198Z,1024.25
2017-12-21T09:34:21.794Z,1024.27
2017-12-21T09:35:22.399Z,1024.26
2017-12-21T09:36:23.032Z,1024.28
2017-12-21T09:37:23.665Z,1024.33
2017-12-21T09:38:24.282Z,1024.37
2017-12-21T09:39:24.908Z,1024.35
2017-12-21T09:40:25.526Z,1024.34
2017-12-21T09:41:26.131Z,1024.37
2017-12-21T09:42:26.744Z,1024.37
2017-12-21T09:43:27.359Z,1024.36
2017-12-21T09:44:27.962Z,1024.39
2017-12-21T09:45:28.572Z,1024.33
2017-12-21T09:46:29.193Z,1024.34
2017-12-21T09:47:29.819Z,1024.40
2017-12-21T09:48:30.450Z,1024.41
2017-12-21T09:49:31.069Z,1024.41
2017-12-21T09:50:31.665Z,1024.40
2017-12-21T09:51:32.271Z,1024.37
2017-12-21T09:52:32.890Z,1024.35
2017-12-21T09:53:33.491Z,1024.41
2017-12-21T09:54:34.105Z,1024.45
2017-12-21T09:55:34.723Z,1024.43
2017-12-21T09:56:35.325Z,1024.44
2017-12-21T09:57:35.935Z,1024.43
2017-12-21T09:58:36.552Z,1024.40
2017-12-21T09:59:37.172Z,1024.40
2017-12-21T10:00:37.786Z,1024.40
2017-12-21T10:01:38.418Z,1024.42
2017-12-21T10:02:39.041Z,1024.41
2017-12-21T10:03:39.645Z,1024.42
2017-12-21T10:04:40.268Z,1024.44
2017-12-21T10:05:40.903Z,1024.39
2017-12-21T10:06:41.729Z,1024.40
2017-12-21T10:07:42.357Z,1024.39
2017-12-21T10:08:42.982Z,1024.40
2017-12-21T10:09:43.614Z,1024.39
2017-12-21T10:10:44.226Z,1024.39
2017-12-21T10:11:44.839Z,1024.41
2017-12-21T10:12:45.459Z,1024.43
2017-12-21T10:13:46.084Z,1024.43
2017-12-21T10:14:46.684Z,1024.44
2017-12-21T10:15:47.308Z,1024.44
2017-12-21T10:16:47.985Z,1024.42
2017-12-21T10:17:48.613Z,1024.39
2017-12-21T10:18:49.238Z,1024.39
2017-12-21T10:19:49.868Z,1024.38
2017-12-21T10:20:50.496Z,1024.36
2017-12-21T10:21:51.098Z,1024.34
2017-12-21T10:22:51.720Z,1024.32
2017-12-21T10:23:52.324Z,1024.32
2017-12-21T10:24:52.957Z,1024.34
2017-12-21T10:25:53.589Z,1024.29
2017-12-21T10:26:54.213Z,1024.30
2017-12-21T10:27:54.820Z,1024.30
2017-12-21T10:28:55.431Z,1024.26
2017-12-21T10:29:56.056Z,1024.33
2017-12-21T10:30:56.670Z,1024.26
2017-12-21T10:31:57.280Z,1024.26
2017-12-21T10:32:57.907Z,1024.27
2017-12-21T10:33:58.535Z,1024.27
2017-12-21T10:34:59.160Z,1024.29
2017-12-21T10:35:59.775Z,1024.27
2017-12-21T10:37:00.403Z,1024.26
2017-12-21T10:38:01.029Z,1024.19
2017-12-21T10:39:01.655Z,1024.22
2017-12-21T10:40:02.315Z,1024.21
2017-12-21T10:41:02.898Z,1024.10
2017-12-21T10:42:03.526Z,1024.14
2017-12-21T10:43:04.334Z,1024.17
2017-12-21T10:44:04.959Z,1024.13
2017-12-21T10:45:05.599Z,1024.11
2017-12-21T10:46:06.214Z,1024.13
2017-12-21T10:47:06.823Z,1024.11
2017-12-21T10:48:07.506Z,1024.17
2017-12-21T10:49:08.137Z,1024.09
2017-12-21T10:50:08.805Z,1024.13
2017-12-21T10:51:09.396Z,1024.09
2017-12-21T10:52:10.230Z,1024.09
2017-12-21T10:53:10.884Z,1024.04
2017-12-21T10:54:11.468Z,1024.02
2017-12-21T10:55:12.105Z,1024.05
2017-12-21T10:56:12.735Z,1023.99
2017-12-21T10:57:13.345Z,1024.01
2017-12-21T10:58:13.954Z,1023.96
2017-12-21T10:59:14.581Z,1023.99
2017-12-21T11:00:15.188Z,1024.00
2017-12-21T11:01:15.813Z,1024.01
2017-12-21T11:02:16.447Z,1023.97
2017-12-21T11:03:17.289Z,1023.97
2017-12-21T11:04:17.899Z,1023.98
2017-12-21T11:05:18.505Z,1023.97
2017-12-21T11:06:19.132Z,1024.01
2017-12-21T11:07:19.759Z,1024.00
2017-12-21T11:08:20.382Z,1024.04
2017-12-21T11:09:21.006Z,1024.02
2017-12-21T11:10:21.614Z,1024.07
2017-12-21T11:11:22.236Z,1024.01
2017-12-21T11:12:22.854Z,1023.99
2017-12-21T11:13:23.480Z,1024.01
2017-12-21T11:14:24.101Z,1024.05
2017-12-21T11:15:24.742Z,1024.03
2017-12-21T11:16:25.580Z,1024.03
2017-12-21T11:17:26.208Z,1024.03
2017-12-21T11:18:26.854Z,1023.99
2017-12-21T11:19:27.488Z,1024.00
2017-12-21T11:20:28.123Z,1023.96
2017-12-21T11:21:28.750Z,1023.95
2017-12-21T11:22:29.373Z,1023.95
2017-12-21T11:23:29.979Z,1023.92
2017-12-21T11:24:30.586Z,1023.96
2017-12-21T11:25:31.212Z,1023.94
2017-12-21T11:26:31.816Z,1023.90
2017-12-21T11:27:32.449Z,1023.92
2017-12-21T11:28:33.053Z,1023.91
2017-12-21T11:29:33.675Z,1023.90
2017-12-21T11:30:34.734Z,1023.91
2017-12-21T11:31:35.345Z,1023.87
2017-12-21T11:32:35.955Z,1023.86
2017-12-21T11:33:36.584Z,1023.83
2017-12-21T11:34:37.231Z,1023.83
2017-12-21T11:35:37.836Z,1023.85
2017-12-21T11:36:38.442Z,1023.89
2017-12-21T11:37:39.069Z,1023.87
2017-12-21T11:38:39.693Z,1023.87
2017-12-21T11:39:40.310Z,1023.88
2017-12-21T11:40:41.140Z,1023.83
2017-12-21T11:41:41.752Z,1023.81
2017-12-21T11:42:42.572Z,1023.81
2017-12-21T11:43:43.189Z,1023.84
2017-12-21T11:44:43.827Z,1023.82
2017-12-21T11:45:44.603Z,1023.86
2017-12-21T11:46:45.362Z,1023.81
2017-12-21T11:47:45.977Z,1023.82
2017-12-21T11:48:46.788Z,1023.80
2017-12-21T11:49:47.394Z,1023.80
2017-12-21T11:50:48.008Z,1023.82
2017-12-21T11:51:48.616Z,1023.80
2017-12-21T11:52:49.242Z,1023.83
2017-12-21T11:53:49.850Z,1023.79
2017-12-21T11:54:50.678Z,1023.80
2017-12-21T11:55:51.302Z,1023.78
2017-12-21T11:56:51.933Z,1023.83
2017-12-21T11:57:52.560Z,1023.80
2017-12-21T11:58:53.169Z,1023.84
2017-12-21T11:59:53.792Z,1023.82
2017-12-21T12:00:54.422Z,1023.80
2017-12-21T12:01:55.031Z,1023.84
2017-12-21T12:02:55.664Z,1023.88
2017-12-21T12:03:56.295Z,1023.84
2017-12-21T12:04:56.905Z,1023.86
2017-12-21T12:05:57.514Z,1023.81
2017-12-21T12:06:58.141Z,1023.83
2017-12-21T12:07:58.747Z,1023.83
2017-12-21T12:08:59.353Z,1023.88
2017-12-21T12:09:59.973Z,1023.92
2017-12-21T12:11:00.588Z,1023.92
2017-12-21T12:12:01.204Z,1023.89
2017-12-21T12:13:02.092Z,1023.88